Time;durP1;ratioP1;P1;durP2;ratioP2;P2;SDS_P1;SDS_P2;PMS_P1;PMS_P2;Temp;Humidity;BMP_temperature;BMP_pressure;BME280_temperature;BME280_humidity;BME280_pressure;Samples;Min_cycle;Max_cycle;Signal;HPM_P1;HPM_P2
2022/01/14 00:02:18;;;;;;;0.77;0.70;;;;;;;;;;20933435;28;20229;-67
2022/01/14 00:12:26;;;;;;;2.60;2.03;;;;;;;;;;20907779;28;20288;-67
2022/01/14 00:22:29;;;;;;;1.80;1.50;;;;;;;;;;20907619;28;20222;-67
2022/01/14 00:42:33;;;;;;;2.30;1.67;;;;;;;;;;20906829;28;20210;-67
2022/01/14 00:52:36;;;;;;;1.73;1.47;;;0.50;99.90;;;;;;20889075;28;20222;-67
2022/01/14 01:02:38;;;;;;;1.33;1.20;;;;;;;;;;20905685;28;20319;-67
2022/01/14 01:22:50;;;;;;;1.57;1.07;;;0.50;99.90;;;;;;20905188;28;20272;-67
2022/01/14 01:33:07;;;;;;;2.00;1.10;;;0.50;99.90;;;;;;20920834;28;20238;-67
2022/01/14 01:43:12;;;;;;;1.87;1.30;;;0.10;99.90;;;;;;20887290;28;20283;-68
2022/01/14 01:53:13;;;;;;;3.83;2.07;;;;;;;;;;20902518;28;20271;-67
2022/01/14 02:03:16;;;;;;;1.47;1.13;;;;;;;;;;20966281;28;20233;-69
2022/01/14 02:13:18;;;;;;;2.17;1.60;;;;;;;;;;20983145;28;20294;-69
2022/01/14 02:23:22;;;;;;;1.57;1.23;;;;;;;;;;20964869;28;20323;-68
2022/01/14 02:33:24;;;;;;;1.10;0.97;;;;;;;;;;20961618;28;20225;-68
2022/01/14 02:43:26;;;;;;;1.23;0.83;;;-0.10;99.90;;;;;;20932457;28;20366;-69
2022/01/14 03:03:44;;;;;;;1.70;1.10;;;;;;;;;;20996366;28;20213;-68
2022/01/14 03:13:46;;;;;;;1.07;0.77;;;0.20;99.90;;;;;;20978795;28;20274;-68
2022/01/14 03:23:50;;;;;;;0.60;0.60;;;-0.10;99.90;;;;;;20961887;28;20213;-68
2022/01/14 03:33:52;;;;;;;0.80;0.80;;;;;;;;;;20990017;28;20217;-68
2022/01/14 03:43:54;;;;;;;1.30;1.00;;;;;;;;;;20943010;28;20252;-68
2022/01/14 03:53:56;;;;;;;1.40;1.30;;;;;;;;;;20975774;28;20221;-69
2022/01/14 04:03:58;;;;;;;1.30;1.00;;;;;;;;;;20983953;28;20283;-69
2022/01/14 04:15:36;;;;;;;1.60;1.00;;;;;;;;;;20963879;28;20247;-69
2022/01/14 04:24:29;;;;;;;1.17;1.07;;;;;;;;;;20973503;28;20213;-69
2022/01/14 04:34:30;;;;;;;1.27;1.10;;;;;;;;;;20989954;28;20282;-68
2022/01/14 04:44:32;;;;;;;1.93;1.73;;;;;;;;;;20951921;28;20213;-68
2022/01/14 04:54:35;;;;;;;1.60;1.10;;;0.00;99.90;;;;;;21028280;28;20217;-68
2022/01/14 05:04:38;;;;;;;1.00;0.80;;;;;;;;;;21020995;28;20216;-68
2022/01/14 05:14:40;;;;;;;0.80;0.80;;;;;;;;;;21038058;28;20216;-68
2022/01/14 05:24:42;;;;;;;1.53;1.00;;;;;;;;;;21021194;28;20208;-68
2022/01/14 05:34:45;;;;;;;1.80;0.90;;;;;;;;;;21054095;28;20212;-68
2022/01/14 05:44:47;;;;;;;1.70;0.90;;;;;;;;;;21053493;28;20197;-68
2022/01/14 05:54:52;;;;;;;1.20;1.10;;;-0.10;99.90;;;;;;21037799;28;20216;-68
2022/01/14 06:04:54;;;;;;;1.17;0.93;;;;;;;;;;21030026;28;20224;-68
2022/01/14 06:14:56;;;;;;;0.97;0.93;;;;;;;;;;21041059;28;20208;-67
2022/01/14 06:25:00;;;;;;;0.60;0.60;;;;;;;;;;21013910;28;20213;-67
2022/01/14 06:35:02;;;;;;;0.70;0.70;;;-0.40;99.90;;;;;;21064681;28;20278;-67
2022/01/14 06:45:06;;;;;;;0.50;0.40;;;-0.60;99.90;;;;;;21040747;28;20204;-67
2022/01/14 06:55:09;;;;;;;1.00;0.80;;;-0.50;99.90;;;;;;21064642;28;20221;-67
2022/01/14 07:05:11;;;;;;;2.53;1.10;;;-0.40;99.90;;;;;;21060091;28;20281;-67
2022/01/14 07:15:15;;;;;;;0.70;0.70;;;-0.50;99.90;;;;;;21054028;28;20216;-67
2022/01/14 07:25:18;;;;;;;0.83;0.73;;;-0.60;99.90;;;;;;21051232;28;20200;-67
2022/01/14 07:35:20;;;;;;;1.47;1.33;;;;;;;;;;21035342;28;20278;-66
2022/01/14 07:45:22;;;;;;;0.67;0.67;;;;;;;;;;21051169;28;20753;-67
2022/01/14 07:55:24;;;;;;;0.50;0.50;;;;;;;;;;21026635;28;20224;-66
2022/01/14 08:05:26;;;;;;;1.10;1.00;;;;;;;;;;21058405;28;20273;-67
2022/01/14 08:15:28;;;;;;;1.20;1.00;;;;;;;;;;21074968;28;20281;-67
2022/01/14 08:25:30;;;;;;;1.07;0.73;;;;;;;;;;21053411;28;20208;-67
2022/01/14 08:35:32;;;;;;;2.00;1.30;;;;;;;;;;21033511;28;20219;-67
2022/01/14 08:45:34;;;;;;;2.23;1.40;;;;;;;;;;21021078;28;20212;-68
2022/01/14 08:55:36;;;;;;;1.17;1.00;;;;;;;;;;21089235;28;20944;-67
2022/01/14 09:05:38;;;;;;;1.33;0.93;;;;;;;;;;21048622;28;20228;-67
2022/01/14 09:15:40;;;;;;;1.43;1.23;;;;;;;;;;21039870;28;20719;-67
2022/01/14 09:25:42;;;;;;;1.30;1.20;;;;;;;;;;21050218;28;20205;-67
2022/01/14 09:35:46;;;;;;;1.23;0.90;;;;;;;;;;21146575;28;20215;-67
2022/01/14 09:45:53;;;;;;;1.57;1.33;;;-0.30;99.90;;;;;;21151692;28;20223;-67
2022/01/14 09:55:55;;;;;;;1.77;1.37;;;;;;;;;;21136237;28;20231;-67
2022/01/14 10:05:57;;;;;;;1.63;1.37;;;;;;;;;;21151748;28;20228;-68
2022/01/14 10:16:07;;;;;;;1.70;1.17;;;-0.20;99.90;;;;;;21135092;28;20624;-68
2022/01/14 10:26:09;;;;;;;1.30;1.20;;;;;;;;;;21133992;28;20242;-68
2022/01/14 10:36:20;;;;;;;2.27;1.50;;;;;;;;;;21133389;28;20273;-68
2022/01/14 10:46:28;;;;;;;2.00;1.40;;;;;;;;;;21131571;28;20199;-68
2022/01/14 10:56:30;;;;;;;3.07;2.20;;;;;;;;;;21098212;28;20284;-68
2022/01/14 11:06:33;;;;;;;2.07;1.53;;;;;;;;;;20891755;28;20268;-68
2022/01/14 11:16:36;;;;;;;1.53;1.43;;;;;;;;;;20894405;28;20221;-68
2022/01/14 11:26:38;;;;;;;3.17;2.63;;;;;;;;;;20939271;22;20228;-67
2022/01/14 11:36:51;;;;;;;2.73;2.43;;;;;;;;;;21156558;27;20878;-68
2022/01/14 11:47:00;;;;;;;2.07;1.70;;;;;;;;;;21142325;28;20219;-68
2022/01/14 11:57:02;;;;;;;2.97;2.07;;;;;;;;;;21125408;28;20284;-67
2022/01/14 12:07:03;;;;;;;1.10;1.03;;;;;;;;;;21122160;27;20214;-68
2022/01/14 12:17:13;;;;;;;3.97;2.83;;;;;;;;;;21122136;27;20258;-68
2022/01/14 12:27:19;;;;;;;2.50;2.13;;;;;;;;;;21058451;28;20232;-68
2022/01/14 12:37:39;;;;;;;2.70;2.30;;;0.30;99.90;;;;;;21039022;28;20216;-68
2022/01/14 12:47:42;;;;;;;2.13;1.93;;;0.30;99.90;;;;;;21067355;27;20233;-67
2022/01/14 12:57:44;;;;;;;3.10;2.40;;;0.30;99.90;;;;;;21113410;28;20576;-68
2022/01/14 13:07:47;;;;;;;2.47;2.13;;;;;;;;;;21138805;27;20674;-68
2022/01/14 13:17:58;;;;;;;3.20;2.13;;;0.40;99.90;;;;;;21155261;28;20216;-68
2022/01/14 13:28:02;;;;;;;2.63;2.07;;;;;;;;;;21108268;28;20296;-68
2022/01/14 13:38:15;;;;;;;5.47;2.87;;;0.60;99.90;;;;;;21134775;28;20256;-68
2022/01/14 13:48:26;;;;;;;4.93;2.50;;;0.60;99.90;;;;;;21117925;28;20215;-68
2022/01/14 13:58:28;;;;;;;4.97;3.40;;;;;;;;;;21107251;28;20570;-68
2022/01/14 14:08:42;;;;;;;2.30;1.97;;;0.60;99.90;;;;;;21094016;22;20236;-71
2022/01/14 14:18:47;;;;;;;4.53;2.73;;;;;;;;;;21063881;28;20240;-70
2022/01/14 14:28:49;;;;;;;3.57;2.70;;;;;;;;;;21023695;28;20216;-70
2022/01/14 14:38:51;;;;;;;4.53;3.07;;;;;;;;;;21038101;28;20236;-71
2022/01/14 14:48:53;;;;;;;3.70;3.00;;;;;;;;;;21080547;28;20579;-71
2022/01/14 14:58:55;;;;;;;3.47;2.97;;;;;;;;;;21039931;28;20224;-70
2022/01/14 15:08:57;;;;;;;1.67;1.47;;;;;;;;;;21076298;28;20220;-71
2022/01/14 15:18:58;;;;;;;3.50;2.77;;;;;;;;;;21052470;28;20217;-71
2022/01/14 15:29:00;;;;;;;3.63;2.60;;;;;;;;;;21093334;28;20204;-70
2022/01/14 15:39:02;;;;;;;4.43;3.17;;;;;;;;;;21050274;28;20232;-71
2022/01/14 15:49:04;;;;;;;3.37;2.87;;;;;;;;;;21126741;28;20265;-71
2022/01/14 15:59:06;;;;;;;3.93;2.63;;;;;;;;;;21153317;28;20208;-71
2022/01/14 16:09:08;;;;;;;4.50;2.90;;;;;;;;;;21121997;28;20220;-71
2022/01/14 16:19:09;;;;;;;3.63;3.27;;;;;;;;;;21107325;28;20237;-71
2022/01/14 16:29:11;;;;;;;3.63;2.73;;;;;;;;;;21052318;28;20278;-71
2022/01/14 16:39:14;;;;;;;5.43;4.63;;;;;;;;;;21055919;28;20652;-71
2022/01/14 16:49:16;;;;;;;3.07;2.17;;;;;;;;;;21121329;28;20208;-71
2022/01/14 16:59:20;;;;;;;3.97;3.00;;;;;;;;;;21072923;28;20699;-71
2022/01/14 17:09:23;;;;;;;4.37;3.13;;;;;;;;;;20999420;28;20275;-71
2022/01/14 17:19:25;;;;;;;3.60;2.87;;;;;;;;;;20953839;28;20214;-71
2022/01/14 17:29:27;;;;;;;3.97;3.33;;;;;;;;;;20980515;28;20914;-71
2022/01/14 17:39:29;;;;;;;3.83;3.07;;;;;;;;;;21064113;28;20270;-71
2022/01/14 17:49:32;;;;;;;1.93;1.63;;;;;;;;;;21030286;28;20212;-71
2022/01/14 17:59:34;;;;;;;3.80;2.77;;;;;;;;;;21047076;28;20220;-71
2022/01/14 18:09:37;;;;;;;3.60;2.80;;;;;;;;;;21120070;28;20219;-71
2022/01/14 18:19:39;;;;;;;2.17;2.00;;;;;;;;;;21101128;28;20258;-71
2022/01/14 18:29:41;;;;;;;3.00;2.40;;;;;;;;;;21035160;28;20254;-71
2022/01/14 18:39:42;;;;;;;2.37;2.17;;;;;;;;;;21068885;28;20274;-71
2022/01/14 18:49:45;;;;;;;2.20;1.50;;;0.10;99.90;;;;;;21059132;28;20220;-71
2022/01/14 18:59:49;;;;;;;2.83;2.17;;;;;;;;;;21069619;28;20318;-71
2022/01/14 19:09:52;;;;;;;2.43;2.17;;;;;;;;;;21056444;28;20233;-72
2022/01/14 19:19:54;;;;;;;4.20;3.43;;;;;;;;;;21072142;28;20268;-71
2022/01/14 19:29:56;;;;;;;2.43;1.97;;;;;;;;;;21156427;28;20734;-71
2022/01/14 19:39:58;;;;;;;2.30;2.00;;;;;;;;;;21121656;28;20236;-71
2022/01/14 19:50:01;;;;;;;3.27;2.37;;;-0.10;99.90;;;;;;21063702;28;20212;-71
2022/01/14 20:00:05;;;;;;;7.33;3.70;;;0.40;99.90;;;;;;21052834;28;20245;-71
2022/01/14 20:10:15;;;;;;;5.50;3.07;;;0.00;99.90;;;;;;21050313;28;20224;-71
2022/01/14 20:20:18;;;;;;;3.00;2.57;;;;;;;;;;21180543;22;20224;-70
2022/01/14 20:30:20;;;;;;;2.37;1.97;;;;;;;;;;21199300;27;20590;-70
2022/01/14 20:40:22;;;;;;;2.80;2.10;;;;;;;;;;21188435;27;20215;-70
2022/01/14 20:50:25;;;;;;;4.77;2.73;;;;;;;;;;21188040;27;20567;-70
2022/01/14 21:00:28;;;;;;;2.87;1.63;;;;;;;;;;21204697;27;20272;-70
2022/01/14 21:10:32;;;;;;;5.07;3.03;;;;;;;;;;21205188;28;20284;-70
2022/01/14 21:20:34;;;;;;;2.27;2.07;;;;;;;;;;21185080;28;20267;-69
2022/01/14 21:30:36;;;;;;;4.80;2.53;;;;;;;;;;21195661;27;20591;-69
2022/01/14 21:40:38;;;;;;;3.40;2.10;;;0.20;99.90;;;;;;21199708;27;20693;-70
2022/01/14 21:50:40;;;;;;;3.03;2.23;;;;;;;;;;21198860;27;20206;-70
2022/01/14 22:00:42;;;;;;;2.10;1.90;;;;;;;;;;21228252;27;20252;-70
2022/01/14 22:10:44;;;;;;;5.33;3.93;;;;;;;;;;21239693;27;20271;-70
2022/01/14 22:20:48;;;;;;;7.97;5.63;;;0.10;99.90;;;;;;21204957;27;20226;-69
2022/01/14 22:30:51;;;;;;;4.07;2.07;;;;;;;;;;21215849;27;20203;-70
2022/01/14 22:40:53;;;;;;;3.03;2.27;;;;;;;;;;21198439;27;20326;-69
2022/01/14 22:50:55;;;;;;;1.53;1.20;;;0.00;99.90;;;;;;21228098;27;20211;-70
2022/01/14 23:00:57;;;;;;;2.93;2.20;;;;;;;;;;21197722;27;20273;-69
2022/01/14 23:10:59;;;;;;;3.10;1.73;;;;;;;;;;21197409;27;20200;-69
2022/01/14 23:21:01;;;;;;;1.60;1.43;;;;;;;;;;21196173;27;20218;-69
2022/01/14 23:31:03;;;;;;;2.20;1.77;;;;;;;;;;21191127;27;20776;-69
2022/01/14 23:41:05;;;;;;;1.10;1.00;;;;;;;;;;21145023;27;20249;-69
2022/01/14 23:51:07;;;;;;;1.73;1.40;;;;;;;;;;21193498;27;20199;-69
